sensor_id;sensor_type;location;lat;lon;timestamp;pressure;altitude;pressure_sealevel;temperature;humidity
6094;BME280;19964;42.060;24.700;2023-07-31T00:00:23;96946.16;;;22.90;58.38
6094;BME280;19964;42.060;24.700;2023-07-31T00:02:50;96934.78;;;22.98;57.76
6094;BME280;19964;42.060;24.700;2023-07-31T00:05:17;96955.34;;;23.22;57.39
6094;BME280;19964;42.060;24.700;2023-07-31T00:07:44;96949.72;;;23.32;57.53
6094;BME280;19964;42.060;24.700;2023-07-31T00:10:13;96950.19;;;23.26;57.96
6094;BME280;19964;42.060;24.700;2023-07-31T00:12:42;96952.22;;;23.29;57.85
6094;BME280;19964;42.060;24.700;2023-07-31T00:15:09;96949.47;;;23.17;58.17
6094;BME280;19964;42.060;24.700;2023-07-31T00:17:37;96906.97;;;22.92;57.90
6094;BME280;19964;42.060;24.700;2023-07-31T00:20:04;96962.84;;;23.12;58.51
6094;BME280;19964;42.060;24.700;2023-07-31T00:22:31;96969.00;;;22.86;59.00
6094;BME280;19964;42.060;24.700;2023-07-31T00:24:58;96965.31;;;22.79;59.25
6094;BME280;19964;42.060;24.700;2023-07-31T00:27:26;96970.13;;;22.85;59.68
6094;BME280;19964;42.060;24.700;2023-07-31T00:29:53;96965.50;;;22.74;59.32
6094;BME280;19964;42.060;24.700;2023-07-31T00:32:20;96966.38;;;22.86;59.30
6094;BME280;19964;42.060;24.700;2023-07-31T00:34:47;96966.09;;;22.79;59.54
6094;BME280;19964;42.060;24.700;2023-07-31T00:37:14;96971.56;;;22.66;59.46
6094;BME280;19964;42.060;24.700;2023-07-31T00:39:41;96953.72;;;22.46;60.68
6094;BME280;19964;42.060;24.700;2023-07-31T00:42:08;96971.09;;;22.55;60.27
6094;BME280;19964;42.060;24.700;2023-07-31T00:44:36;96968.31;;;22.52;60.12
6094;BME280;19964;42.060;24.700;2023-07-31T00:47:04;96967.69;;;22.38;61.15
6094;BME280;19964;42.060;24.700;2023-07-31T00:49:31;96977.97;;;22.22;61.87
6094;BME280;19964;42.060;24.700;2023-07-31T00:51:58;96973.28;;;22.36;60.95
6094;BME280;19964;42.060;24.700;2023-07-31T00:54:26;96972.53;;;22.19;61.39
6094;BME280;19964;42.060;24.700;2023-07-31T00:56:53;96957.78;;;22.26;61.55
6094;BME280;19964;42.060;24.700;2023-07-31T00:59:21;96956.81;;;22.39;60.78
6094;BME280;19964;42.060;24.700;2023-07-31T01:01:49;96972.19;;;22.54;60.39
6094;BME280;19964;42.060;24.700;2023-07-31T01:04:17;96939.31;;;22.00;60.50
6094;BME280;19964;42.060;24.700;2023-07-31T01:06:48;96969.25;;;22.30;61.00
6094;BME280;19964;42.060;24.700;2023-07-31T01:09:27;96972.03;;;22.51;60.42
6094;BME280;19964;42.060;24.700;2023-07-31T01:11:57;96969.41;;;22.34;61.75
6094;BME280;19964;42.060;24.700;2023-07-31T01:14:25;96978.44;;;22.24;62.33
6094;BME280;19964;42.060;24.700;2023-07-31T01:16:54;96985.56;;;22.41;61.83
6094;BME280;19964;42.060;24.700;2023-07-31T01:19:23;96977.94;;;22.48;60.79
6094;BME280;19964;42.060;24.700;2023-07-31T01:22:04;96987.56;;;22.52;60.02
6094;BME280;19964;42.060;24.700;2023-07-31T01:24:42;96982.13;;;22.66;59.44
6094;BME280;19964;42.060;24.700;2023-07-31T01:27:21;96977.31;;;22.59;60.03
6094;BME280;19964;42.060;24.700;2023-07-31T01:29:55;96980.28;;;22.66;59.89
6094;BME280;19964;42.060;24.700;2023-07-31T01:32:23;96983.41;;;22.43;60.87
6094;BME280;19964;42.060;24.700;2023-07-31T01:34:51;96940.88;;;22.01;61.11
6094;BME280;19964;42.060;24.700;2023-07-31T01:37:19;96982.16;;;22.06;61.62
6094;BME280;19964;42.060;24.700;2023-07-31T01:39:46;96974.72;;;21.91;62.14
6094;BME280;19964;42.060;24.700;2023-07-31T01:42:14;96977.22;;;21.96;61.79
6094;BME280;19964;42.060;24.700;2023-07-31T01:44:42;96930.34;;;21.84;61.77
6094;BME280;19964;42.060;24.700;2023-07-31T01:47:10;96970.34;;;22.12;62.30
6094;BME280;19964;42.060;24.700;2023-07-31T01:49:37;96973.78;;;22.12;61.20
6094;BME280;19964;42.060;24.700;2023-07-31T01:52:12;96975.34;;;22.13;60.39
6094;BME280;19964;42.060;24.700;2023-07-31T01:54:39;96971.28;;;22.16;61.00
6094;BME280;19964;42.060;24.700;2023-07-31T01:57:06;96973.63;;;22.09;60.54
6094;BME280;19964;42.060;24.700;2023-07-31T01:59:33;96961.84;;;21.98;60.38
6094;BME280;19964;42.060;24.700;2023-07-31T02:02:01;96974.69;;;22.08;59.97
6094;BME280;19964;42.060;24.700;2023-07-31T02:04:28;96982.78;;;22.20;59.55
6094;BME280;19964;42.060;24.700;2023-07-31T02:06:55;96966.31;;;22.14;60.10
6094;BME280;19964;42.060;24.700;2023-07-31T02:09:22;96985.09;;;22.30;59.21
6094;BME280;19964;42.060;24.700;2023-07-31T02:11:49;96993.78;;;22.39;58.61
6094;BME280;19964;42.060;24.700;2023-07-31T02:14:16;96990.69;;;22.37;58.99
6094;BME280;19964;42.060;24.700;2023-07-31T02:16:43;96985.84;;;22.39;59.39
6094;BME280;19964;42.060;24.700;2023-07-31T02:19:11;96972.19;;;22.46;59.68
6094;BME280;19964;42.060;24.700;2023-07-31T02:21:38;96968.63;;;22.50;60.42
6094;BME280;19964;42.060;24.700;2023-07-31T02:24:05;96995.81;;;22.68;61.58
6094;BME280;19964;42.060;24.700;2023-07-31T02:26:32;96984.13;;;22.77;59.71
6094;BME280;19964;42.060;24.700;2023-07-31T02:28:59;96984.44;;;22.76;60.85
6094;BME280;19964;42.060;24.700;2023-07-31T02:31:26;96975.25;;;22.82;62.47
6094;BME280;19964;42.060;24.700;2023-07-31T02:33:52;96973.09;;;22.84;63.70
6094;BME280;19964;42.060;24.700;2023-07-31T02:36:21;96972.91;;;22.80;64.22
6094;BME280;19964;42.060;24.700;2023-07-31T02:38:48;96966.72;;;22.76;64.68
6094;BME280;19964;42.060;24.700;2023-07-31T02:41:15;96962.66;;;22.87;64.54
6094;BME280;19964;42.060;24.700;2023-07-31T02:43:41;96967.59;;;22.89;65.43
6094;BME280;19964;42.060;24.700;2023-07-31T02:46:09;96961.94;;;23.08;65.33
6094;BME280;19964;42.060;24.700;2023-07-31T02:48:36;96963.50;;;23.09;65.27
6094;BME280;19964;42.060;24.700;2023-07-31T02:51:03;96959.94;;;23.05;65.32
6094;BME280;19964;42.060;24.700;2023-07-31T02:53:31;96955.88;;;23.07;65.44
6094;BME280;19964;42.060;24.700;2023-07-31T02:55:58;96953.69;;;23.09;65.76
6094;BME280;19964;42.060;24.700;2023-07-31T02:58:25;96943.22;;;23.21;65.66
6094;BME280;19964;42.060;24.700;2023-07-31T03:00:52;96932.59;;;23.30;65.32
6094;BME280;19964;42.060;24.700;2023-07-31T03:03:19;96935.03;;;23.43;65.15
6094;BME280;19964;42.060;24.700;2023-07-31T03:05:46;96932.72;;;23.42;65.41
6094;BME280;19964;42.060;24.700;2023-07-31T03:08:13;96928.97;;;23.43;65.93
6094;BME280;19964;42.060;24.700;2023-07-31T03:10:41;96917.47;;;23.39;66.48
6094;BME280;19964;42.060;24.700;2023-07-31T03:13:08;96922.81;;;23.30;67.21
6094;BME280;19964;42.060;24.700;2023-07-31T03:15:35;96933.09;;;23.32;67.31
6094;BME280;19964;42.060;24.700;2023-07-31T03:18:02;96921.56;;;23.28;67.71
6094;BME280;19964;42.060;24.700;2023-07-31T03:20:29;96929.16;;;23.38;68.16
6094;BME280;19964;42.060;24.700;2023-07-31T03:22:56;96890.06;;;23.14;68.47
6094;BME280;19964;42.060;24.700;2023-07-31T03:25:23;96932.91;;;23.28;69.36
6094;BME280;19964;42.060;24.700;2023-07-31T03:27:51;96943.25;;;23.13;71.28
6094;BME280;19964;42.060;24.700;2023-07-31T03:30:18;96945.81;;;22.92;74.13
6094;BME280;19964;42.060;24.700;2023-07-31T03:32:45;96956.31;;;22.80;76.56
6094;BME280;19964;42.060;24.700;2023-07-31T03:35:12;96962.53;;;22.67;78.24
6094;BME280;19964;42.060;24.700;2023-07-31T03:37:39;96967.66;;;22.55;80.30
6094;BME280;19964;42.060;24.700;2023-07-31T03:40:07;96974.66;;;22.68;79.64
6094;BME280;19964;42.060;24.700;2023-07-31T03:42:34;96973.97;;;22.88;82.39
6094;BME280;19964;42.060;24.700;2023-07-31T03:45:03;96976.78;;;22.83;87.61
6094;BME280;19964;42.060;24.700;2023-07-31T03:47:30;96975.88;;;22.79;91.67
6094;BME280;19964;42.060;24.700;2023-07-31T03:49:56;96959.91;;;22.50;95.94
6094;BME280;19964;42.060;24.700;2023-07-31T03:52:23;97004.19;;;22.70;99.22
6094;BME280;19964;42.060;24.700;2023-07-31T03:54:50;96999.69;;;22.62;100.00
6094;BME280;19964;42.060;24.700;2023-07-31T03:57:17;97013.03;;;22.57;100.00
6094;BME280;19964;42.060;24.700;2023-07-31T03:59:44;97029.81;;;22.52;94.75
6094;BME280;19964;42.060;24.700;2023-07-31T04:02:12;97029.53;;;22.37;96.95
6094;BME280;19964;42.060;24.700;2023-07-31T04:04:40;97027.03;;;22.14;100.00
6094;BME280;19964;42.060;24.700;2023-07-31T04:07:07;97019.78;;;21.64;100.00
6094;BME280;19964;42.060;24.700;2023-07-31T04:09:33;97033.63;;;21.30;100.00
6094;BME280;19964;42.060;24.700;2023-07-31T04:12:00;97023.03;;;21.13;100.00
6094;BME280;19964;42.060;24.700;2023-07-31T04:14:27;97035.34;;;20.73;100.00
6094;BME280;19964;42.060;24.700;2023-07-31T04:16:54;97032.22;;;20.71;100.00
6094;BME280;19964;42.060;24.700;2023-07-31T04:19:22;97048.00;;;20.93;100.00
6094;BME280;19964;42.060;24.700;2023-07-31T04:21:49;97051.56;;;20.67;100.00
6094;BME280;19964;42.060;24.700;2023-07-31T04:24:16;97048.44;;;20.42;100.00
6094;BME280;19964;42.060;24.700;2023-07-31T04:26:49;97050.97;;;20.48;100.00
6094;BME280;19964;42.060;24.700;2023-07-31T04:29:16;97043.75;;;20.62;100.00
6094;BME280;19964;42.060;24.700;2023-07-31T04:31:43;97038.56;;;20.70;100.00
6094;BME280;19964;42.060;24.700;2023-07-31T04:34:10;97034.59;;;20.81;100.00
6094;BME280;19964;42.060;24.700;2023-07-31T04:36:39;97035.28;;;20.87;100.00
6094;BME280;19964;42.060;24.700;2023-07-31T04:39:06;97057.84;;;21.01;100.00
6094;BME280;19964;42.060;24.700;2023-07-31T04:41:33;97042.41;;;20.95;100.00
6094;BME280;19964;42.060;24.700;2023-07-31T04:44:00;97047.09;;;20.98;100.00
6094;BME280;19964;42.060;24.700;2023-07-31T04:46:29;97036.97;;;21.13;100.00
6094;BME280;19964;42.060;24.700;2023-07-31T04:48:56;97039.81;;;21.25;100.00
6094;BME280;19964;42.060;24.700;2023-07-31T04:51:23;97036.13;;;21.35;100.00
6094;BME280;19964;42.060;24.700;2023-07-31T04:53:52;97046.41;;;21.45;100.00
6094;BME280;19964;42.060;24.700;2023-07-31T04:56:18;96996.78;;;21.39;100.00
6094;BME280;19964;42.060;24.700;2023-07-31T04:58:45;97026.78;;;21.68;100.00
6094;BME280;19964;42.060;24.700;2023-07-31T05:01:12;97007.69;;;21.63;100.00
6094;BME280;19964;42.060;24.700;2023-07-31T05:03:39;97034.75;;;21.85;100.00
6094;BME280;19964;42.060;24.700;2023-07-31T05:06:06;97023.63;;;22.05;100.00
6094;BME280;19964;42.060;24.700;2023-07-31T05:08:33;97028.09;;;22.22;99.04
6094;BME280;19964;42.060;24.700;2023-07-31T05:11:02;96993.97;;;22.08;99.54
6094;BME280;19964;42.060;24.700;2023-07-31T05:13:29;97020.19;;;22.39;98.42
6094;BME280;19964;42.060;24.700;2023-07-31T05:15:56;97026.09;;;22.62;99.71
6094;BME280;19964;42.060;24.700;2023-07-31T05:18:23;97024.81;;;22.93;96.29
6094;BME280;19964;42.060;24.700;2023-07-31T05:20:50;97026.25;;;23.29;93.97
6094;BME280;19964;42.060;24.700;2023-07-31T05:23:17;97023.03;;;23.81;91.99
6094;BME280;19964;42.060;24.700;2023-07-31T05:25:44;97017.41;;;23.83;89.23
6094;BME280;19964;42.060;24.700;2023-07-31T05:28:13;97022.44;;;24.26;86.95
6094;BME280;19964;42.060;24.700;2023-07-31T05:30:40;97037.00;;;24.52;84.92
6094;BME280;19964;42.060;24.700;2023-07-31T05:33:06;97043.84;;;24.33;83.30
6094;BME280;19964;42.060;24.700;2023-07-31T05:35:33;97041.94;;;23.92;85.97
6094;BME280;19964;42.060;24.700;2023-07-31T05:38:00;97059.38;;;23.93;86.06
6094;BME280;19964;42.060;24.700;2023-07-31T05:40:27;97056.09;;;24.46;81.87
6094;BME280;19964;42.060;24.700;2023-07-31T05:42:54;97039.88;;;24.80;79.28
6094;BME280;19964;42.060;24.700;2023-07-31T05:45:22;97056.56;;;25.37;76.13
6094;BME280;19964;42.060;24.700;2023-07-31T05:47:49;97054.34;;;26.12;74.67
6094;BME280;19964;42.060;24.700;2023-07-31T05:50:16;97061.19;;;26.37;71.83
6094;BME280;19964;42.060;24.700;2023-07-31T05:52:43;97060.88;;;26.54;69.25
6094;BME280;19964;42.060;24.700;2023-07-31T05:55:10;97061.03;;;26.45;70.12
6094;BME280;19964;42.060;24.700;2023-07-31T05:57:37;97059.09;;;26.58;68.49
6094;BME280;19964;42.060;24.700;2023-07-31T06:00:05;97061.38;;;26.99;68.14
6094;BME280;19964;42.060;24.700;2023-07-31T06:02:33;97061.41;;;26.32;68.93
6094;BME280;19964;42.060;24.700;2023-07-31T06:05:02;97054.25;;;26.08;69.64
6094;BME280;19964;42.060;24.700;2023-07-31T06:07:29;97060.88;;;26.14;68.71
6094;BME280;19964;42.060;24.700;2023-07-31T06:09:56;97068.44;;;25.88;68.74
6094;BME280;19964;42.060;24.700;2023-07-31T06:12:28;97069.00;;;25.70;69.88
6094;BME280;19964;42.060;24.700;2023-07-31T06:14:55;97063.69;;;25.70;70.63
6094;BME280;19964;42.060;24.700;2023-07-31T06:17:22;97056.84;;;25.69;69.75
6094;BME280;19964;42.060;24.700;2023-07-31T06:19:51;97056.38;;;25.54;70.30
6094;BME280;19964;42.060;24.700;2023-07-31T06:22:18;97048.88;;;25.44;70.64
6094;BME280;19964;42.060;24.700;2023-07-31T06:24:46;97058.66;;;26.04;69.22
6094;BME280;19964;42.060;24.700;2023-07-31T06:27:13;97058.75;;;26.60;67.15
6094;BME280;19964;42.060;24.700;2023-07-31T06:29:40;97056.59;;;26.77;66.29
6094;BME280;19964;42.060;24.700;2023-07-31T06:32:07;97055.66;;;26.58;65.37
6094;BME280;19964;42.060;24.700;2023-07-31T06:34:34;97054.63;;;27.33;65.14
6094;BME280;19964;42.060;24.700;2023-07-31T06:37:02;97045.78;;;27.60;62.42
6094;BME280;19964;42.060;24.700;2023-07-31T06:39:29;97060.16;;;28.06;61.29
6094;BME280;19964;42.060;24.700;2023-07-31T06:41:56;97054.00;;;28.40;61.59
6094;BME280;19964;42.060;24.700;2023-07-31T06:44:23;97050.38;;;28.29;60.65
6094;BME280;19964;42.060;24.700;2023-07-31T06:46:50;97068.56;;;28.81;59.67
6094;BME280;19964;42.060;24.700;2023-07-31T06:49:17;97053.25;;;28.78;57.55
6094;BME280;19964;42.060;24.700;2023-07-31T06:51:44;97066.38;;;28.86;59.37
6094;BME280;19964;42.060;24.700;2023-07-31T06:54:13;97049.88;;;29.00;57.15
6094;BME280;19964;42.060;24.700;2023-07-31T06:56:39;97053.88;;;28.90;58.95
6094;BME280;19964;42.060;24.700;2023-07-31T06:59:06;97063.56;;;29.18;56.81
6094;BME280;19964;42.060;24.700;2023-07-31T07:01:33;97051.28;;;28.94;58.18
6094;BME280;19964;42.060;24.700;2023-07-31T07:04:00;97066.44;;;28.52;58.43
6094;BME280;19964;42.060;24.700;2023-07-31T07:06:27;97066.72;;;28.28;59.28
6094;BME280;19964;42.060;24.700;2023-07-31T07:08:54;97069.88;;;28.52;58.66
6094;BME280;19964;42.060;24.700;2023-07-31T07:11:22;97072.00;;;28.62;58.82
6094;BME280;19964;42.060;24.700;2023-07-31T07:13:49;97064.09;;;28.66;59.13
6094;BME280;19964;42.060;24.700;2023-07-31T07:16:16;97067.88;;;28.65;58.05
6094;BME280;19964;42.060;24.700;2023-07-31T07:18:43;97051.53;;;29.08;58.47
6094;BME280;19964;42.060;24.700;2023-07-31T07:21:10;97063.72;;;29.51;55.65
6094;BME280;19964;42.060;24.700;2023-07-31T07:23:41;97064.84;;;29.72;55.30
6094;BME280;19964;42.060;24.700;2023-07-31T07:26:08;97055.72;;;29.51;57.61
6094;BME280;19964;42.060;24.700;2023-07-31T07:28:36;97066.25;;;29.66;56.42
6094;BME280;19964;42.060;24.700;2023-07-31T07:31:03;97060.91;;;29.66;56.65
6094;BME280;19964;42.060;24.700;2023-07-31T07:33:31;97074.13;;;29.14;57.85
6094;BME280;19964;42.060;24.700;2023-07-31T07:36:00;97061.38;;;29.49;59.21
6094;BME280;19964;42.060;24.700;2023-07-31T07:38:27;97060.34;;;29.76;56.73
6094;BME280;19964;42.060;24.700;2023-07-31T07:40:54;97075.59;;;29.31;56.94
6094;BME280;19964;42.060;24.700;2023-07-31T07:43:21;97066.38;;;28.86;57.92
6094;BME280;19964;42.060;24.700;2023-07-31T07:45:49;97071.50;;;28.95;56.85
6094;BME280;19964;42.060;24.700;2023-07-31T07:48:16;97072.63;;;28.56;58.80
6094;BME280;19964;42.060;24.700;2023-07-31T07:50:43;97062.59;;;28.49;60.23
6094;BME280;19964;42.060;24.700;2023-07-31T07:53:10;97072.16;;;28.15;61.55
6094;BME280;19964;42.060;24.700;2023-07-31T07:55:37;97077.13;;;27.98;62.64
6094;BME280;19964;42.060;24.700;2023-07-31T07:58:04;97083.78;;;27.92;60.83
6094;BME280;19964;42.060;24.700;2023-07-31T08:00:31;97085.03;;;27.48;61.13
6094;BME280;19964;42.060;24.700;2023-07-31T08:02:59;97082.28;;;27.75;62.34
6094;BME280;19964;42.060;24.700;2023-07-31T08:05:26;97074.13;;;28.18;60.01
6094;BME280;19964;42.060;24.700;2023-07-31T08:07:53;97076.31;;;28.67;59.89
6094;BME280;19964;42.060;24.700;2023-07-31T08:10:20;97064.00;;;28.81;59.11
6094;BME280;19964;42.060;24.700;2023-07-31T08:12:47;97061.28;;;28.59;59.62
6094;BME280;19964;42.060;24.700;2023-07-31T08:15:14;97070.06;;;28.59;60.08
6094;BME280;19964;42.060;24.700;2023-07-31T08:17:41;97024.03;;;27.74;61.58
6094;BME280;19964;42.060;24.700;2023-07-31T08:20:10;97045.75;;;28.26;61.42
6094;BME280;19964;42.060;24.700;2023-07-31T08:22:37;97014.41;;;28.58;59.21
6094;BME280;19964;42.060;24.700;2023-07-31T08:25:05;97051.16;;;29.29;58.13
6094;BME280;19964;42.060;24.700;2023-07-31T08:27:32;97049.00;;;29.86;56.31
6094;BME280;19964;42.060;24.700;2023-07-31T08:29:59;97052.16;;;29.69;56.23
6094;BME280;19964;42.060;24.700;2023-07-31T08:32:26;97037.28;;;29.68;53.69
6094;BME280;19964;42.060;24.700;2023-07-31T08:34:53;97045.06;;;29.54;54.47
6094;BME280;19964;42.060;24.700;2023-07-31T08:37:21;97053.59;;;29.86;54.42
6094;BME280;19964;42.060;24.700;2023-07-31T08:39:48;97049.88;;;29.94;54.33
6094;BME280;19964;42.060;24.700;2023-07-31T08:42:15;97042.34;;;30.00;54.42
6094;BME280;19964;42.060;24.700;2023-07-31T08:44:43;97027.69;;;29.90;52.95
6094;BME280;19964;42.060;24.700;2023-07-31T08:47:11;97053.91;;;30.37;52.68
6094;BME280;19964;42.060;24.700;2023-07-31T08:49:39;97017.75;;;29.64;52.98
6094;BME280;19964;42.060;24.700;2023-07-31T08:52:07;97054.19;;;30.02;54.41
6094;BME280;19964;42.060;24.700;2023-07-31T08:54:36;97022.84;;;29.99;52.53
6094;BME280;19964;42.060;24.700;2023-07-31T08:57:04;97049.06;;;29.67;53.65
6094;BME280;19964;42.060;24.700;2023-07-31T08:59:33;97056.41;;;30.26;52.13
6094;BME280;19964;42.060;24.700;2023-07-31T09:02:05;97009.25;;;30.11;49.76
6094;BME280;19964;42.060;24.700;2023-07-31T09:04:32;97047.25;;;30.27;50.60
6094;BME280;19964;42.060;24.700;2023-07-31T09:07:01;97019.75;;;29.97;50.94
6094;BME280;19964;42.060;24.700;2023-07-31T09:09:29;97056.34;;;30.19;50.81
6094;BME280;19964;42.060;24.700;2023-07-31T09:11:58;97039.19;;;29.68;50.55
6094;BME280;19964;42.060;24.700;2023-07-31T09:14:26;97054.97;;;29.76;49.97
6094;BME280;19964;42.060;24.700;2023-07-31T09:16:54;97051.69;;;30.42;51.32
6094;BME280;19964;42.060;24.700;2023-07-31T09:19:29;97051.66;;;30.72;51.10
6094;BME280;19964;42.060;24.700;2023-07-31T09:21:56;97051.41;;;31.21;48.57
6094;BME280;19964;42.060;24.700;2023-07-31T09:24:28;97046.13;;;31.35;49.93
6094;BME280;19964;42.060;24.700;2023-07-31T09:26:58;97046.34;;;30.76;51.42
6094;BME280;19964;42.060;24.700;2023-07-31T09:29:26;97044.50;;;30.50;52.31
6094;BME280;19964;42.060;24.700;2023-07-31T09:31:55;97044.34;;;30.10;50.73
6094;BME280;19964;42.060;24.700;2023-07-31T09:34:30;97036.13;;;29.92;50.42
6094;BME280;19964;42.060;24.700;2023-07-31T09:36:59;97037.94;;;30.44;50.82
6094;BME280;19964;42.060;24.700;2023-07-31T09:39:29;97015.44;;;30.82;49.52
6094;BME280;19964;42.060;24.700;2023-07-31T09:41:57;97019.16;;;30.73;50.09
6094;BME280;19964;42.060;24.700;2023-07-31T09:44:37;97027.78;;;31.33;51.58
6094;BME280;19964;42.060;24.700;2023-07-31T09:47:05;97032.03;;;31.89;45.18
6094;BME280;19964;42.060;24.700;2023-07-31T09:49:32;97023.50;;;31.76;47.17
6094;BME280;19964;42.060;24.700;2023-07-31T09:51:59;97032.66;;;31.21;45.60
6094;BME280;19964;42.060;24.700;2023-07-31T09:54:28;97027.59;;;31.12;46.89
6094;BME280;19964;42.060;24.700;2023-07-31T09:56:56;97029.94;;;30.81;46.75
6094;BME280;19964;42.060;24.700;2023-07-31T09:59:26;97020.97;;;31.39;47.01
6094;BME280;19964;42.060;24.700;2023-07-31T10:01:55;97026.88;;;31.63;44.62
6094;BME280;19964;42.060;24.700;2023-07-31T10:04:28;97012.78;;;31.73;44.81
6094;BME280;19964;42.060;24.700;2023-07-31T10:06:56;97022.13;;;31.93;44.90
6094;BME280;19964;42.060;24.700;2023-07-31T10:09:25;97031.25;;;31.88;45.31
6094;BME280;19964;42.060;24.700;2023-07-31T10:12:00;97022.25;;;32.24;44.17
6094;BME280;19964;42.060;24.700;2023-07-31T10:14:30;96982.13;;;31.70;45.54
6094;BME280;19964;42.060;24.700;2023-07-31T10:16:58;97016.19;;;31.19;46.01
6094;BME280;19964;42.060;24.700;2023-07-31T10:19:26;97003.59;;;30.83;45.37
6094;BME280;19964;42.060;24.700;2023-07-31T10:21:54;96999.28;;;31.11;47.31
6094;BME280;19964;42.060;24.700;2023-07-31T10:24:23;96957.91;;;31.02;45.21
6094;BME280;19964;42.060;24.700;2023-07-31T10:26:52;96991.69;;;30.80;45.99
6094;BME280;19964;42.060;24.700;2023-07-31T10:29:21;96952.78;;;30.46;45.65
6094;BME280;19964;42.060;24.700;2023-07-31T10:31:51;96995.63;;;31.33;46.00
6094;BME280;19964;42.060;24.700;2023-07-31T10:34:19;96993.38;;;31.93;44.78
6094;BME280;19964;42.060;24.700;2023-07-31T10:36:45;96996.53;;;32.09;44.18
6094;BME280;19964;42.060;24.700;2023-07-31T10:39:35;96987.06;;;31.61;44.58
6094;BME280;19964;42.060;24.700;2023-07-31T10:42:10;96974.34;;;31.51;44.55
6094;BME280;19964;42.060;24.700;2023-07-31T10:44:40;96970.03;;;31.94;44.44
6094;BME280;19964;42.060;24.700;2023-07-31T10:47:14;96978.22;;;32.25;43.65
6094;BME280;19964;42.060;24.700;2023-07-31T10:49:44;96982.00;;;32.21;41.95
6094;BME280;19964;42.060;24.700;2023-07-31T10:52:13;96977.47;;;32.32;41.47
6094;BME280;19964;42.060;24.700;2023-07-31T10:54:41;96975.16;;;32.30;40.21
6094;BME280;19964;42.060;24.700;2023-07-31T10:57:19;96970.22;;;32.43;41.17
6094;BME280;19964;42.060;24.700;2023-07-31T10:59:47;96967.69;;;32.96;42.13
6094;BME280;19964;42.060;24.700;2023-07-31T11:02:25;96965.75;;;32.96;40.29
6094;BME280;19964;42.060;24.700;2023-07-31T11:05:08;96965.13;;;32.06;41.39
6094;BME280;19964;42.060;24.700;2023-07-31T11:07:47;96954.28;;;31.85;41.78
6094;BME280;19964;42.060;24.700;2023-07-31T11:10:17;96953.44;;;31.78;41.34
6094;BME280;19964;42.060;24.700;2023-07-31T11:12:45;96957.16;;;31.52;43.21
6094;BME280;19964;42.060;24.700;2023-07-31T11:15:13;96948.81;;;31.13;44.34
6094;BME280;19964;42.060;24.700;2023-07-31T11:17:42;96947.09;;;30.88;45.16
6094;BME280;19964;42.060;24.700;2023-07-31T11:20:09;96948.72;;;30.99;45.10
6094;BME280;19964;42.060;24.700;2023-07-31T11:22:37;96945.97;;;30.92;45.77
6094;BME280;19964;42.060;24.700;2023-07-31T11:25:04;96929.25;;;31.06;43.60
6094;BME280;19964;42.060;24.700;2023-07-31T11:27:38;96943.38;;;30.99;44.21
6094;BME280;19964;42.060;24.700;2023-07-31T11:30:07;96938.81;;;31.03;43.98
6094;BME280;19964;42.060;24.700;2023-07-31T11:32:36;96941.16;;;31.15;43.64
6094;BME280;19964;42.060;24.700;2023-07-31T11:35:05;96934.88;;;31.41;43.14
6094;BME280;19964;42.060;24.700;2023-07-31T11:37:40;96933.47;;;31.58;42.56
6094;BME280;19964;42.060;24.700;2023-07-31T11:40:08;96918.88;;;31.48;45.28
6094;BME280;19964;42.060;24.700;2023-07-31T11:42:35;96939.56;;;31.58;46.95
6094;BME280;19964;42.060;24.700;2023-07-31T11:45:03;96934.19;;;31.58;48.94
6094;BME280;19964;42.060;24.700;2023-07-31T11:47:30;96938.03;;;31.53;49.03
6094;BME280;19964;42.060;24.700;2023-07-31T11:50:00;96933.66;;;30.84;50.38
6094;BME280;19964;42.060;24.700;2023-07-31T11:52:29;96939.22;;;29.99;52.04
6094;BME280;19964;42.060;24.700;2023-07-31T11:54:59;96924.25;;;29.61;52.95
6094;BME280;19964;42.060;24.700;2023-07-31T11:57:27;96906.63;;;29.30;53.88
6094;BME280;19964;42.060;24.700;2023-07-31T11:59:55;96919.03;;;29.45;54.20
6094;BME280;19964;42.060;24.700;2023-07-31T12:02:23;96950.78;;;29.50;54.67
6094;BME280;19964;42.060;24.700;2023-07-31T12:04:50;96945.13;;;29.07;55.87
6094;BME280;19964;42.060;24.700;2023-07-31T12:07:17;96954.44;;;29.16;55.63
6094;BME280;19964;42.060;24.700;2023-07-31T12:09:53;96904.72;;;28.82;56.26
6094;BME280;19964;42.060;24.700;2023-07-31T12:12:20;96952.97;;;29.19;55.03
6094;BME280;19964;42.060;24.700;2023-07-31T12:14:48;96942.00;;;29.50;55.02
6094;BME280;19964;42.060;24.700;2023-07-31T12:17:17;96939.63;;;30.01;55.64
6094;BME280;19964;42.060;24.700;2023-07-31T12:19:45;96935.31;;;29.63;53.35
6094;BME280;19964;42.060;24.700;2023-07-31T12:22:13;96936.84;;;29.90;52.90
6094;BME280;19964;42.060;24.700;2023-07-31T12:24:42;96937.38;;;29.73;53.35
6094;BME280;19964;42.060;24.700;2023-07-31T12:27:13;96929.03;;;29.74;53.32
6094;BME280;19964;42.060;24.700;2023-07-31T12:29:42;96925.03;;;29.65;53.42
6094;BME280;19964;42.060;24.700;2023-07-31T12:32:20;96912.41;;;29.88;54.68
6094;BME280;19964;42.060;24.700;2023-07-31T12:34:49;96894.25;;;29.19;54.38
6094;BME280;19964;42.060;24.700;2023-07-31T12:37:16;96912.22;;;29.74;54.35
6094;BME280;19964;42.060;24.700;2023-07-31T12:39:43;96907.25;;;29.72;54.38
6094;BME280;19964;42.060;24.700;2023-07-31T12:42:12;96900.69;;;29.70;52.88
6094;BME280;19964;42.060;24.700;2023-07-31T12:44:39;96865.19;;;29.99;55.06
6094;BME280;19964;42.060;24.700;2023-07-31T12:47:06;96891.66;;;30.48;51.86
6094;BME280;19964;42.060;24.700;2023-07-31T12:49:33;96901.53;;;30.40;51.76
6094;BME280;19964;42.060;24.700;2023-07-31T12:52:00;96887.28;;;30.73;50.37
6094;BME280;19964;42.060;24.700;2023-07-31T12:54:26;96889.47;;;29.87;50.88
6094;BME280;19964;42.060;24.700;2023-07-31T12:56:53;96896.56;;;29.46;51.29
6094;BME280;19964;42.060;24.700;2023-07-31T12:59:22;96904.75;;;29.60;52.35
6094;BME280;19964;42.060;24.700;2023-07-31T13:01:49;96900.75;;;29.47;52.63
6094;BME280;19964;42.060;24.700;2023-07-31T13:04:16;96896.56;;;29.72;52.23